KAID/AID METAR and TAF weather

Enter ICAO airport designator
Station Type Date Time Source
KAID METAR 2019/08/22 02:55 UTC NOAA

KAID 220255Z AUTO 23005KT 10SM CLR 24/21 A3000 RMK AO2 T02420211


Station Type Date Time Source
KAID Decoded METAR 2019/08/22 02:55 UTC NOAA

Station name not available
Aug 21, 2019 - 10:55 PM EDT / 2019.08.22 0255 UTC
Wind: from the SW (230 degrees) at 6 MPH (5 KT):0
Visibility: 10 mile(s):0
Sky conditions: clear
Temperature: 75.6 F (24.2 C)
Dew Point: 70.0 F (21.1 C)
Relative Humidity: 82%
Pressure (altimeter): 30 in. Hg (1015 hPa)
ob: KAID 220255Z AUTO 23005KT 10SM CLR 24/21 A3000 RMK AO2 T02420211
cycle: 3

Station Type Date Time Source
KAID TAF UTC NOAA

Error!

Example: see airport list